Time;durP1;ratioP1;P1;durP2;ratioP2;P2;SDS_P1;SDS_P2;PMS_P1;PMS_P2;Temp;Humidity;BMP_temperature;BMP_pressure;BME280_temperature;BME280_humidity;BME280_pressure;Samples;Min_cycle;Max_cycle;Signal;HPM_P1;HPM_P2
2022/04/19 00:02:01;;;;;;;23.50;7.00;;;;;;;6.45;49.91;99963.42;105715;1272;23727;-62
2022/04/19 00:04:32;;;;;;;24.40;8.30;;;;;;;6.41;50.07;99960.89;105766;1271;22559;-62
2022/04/19 00:07:04;;;;;;;22.40;7.20;;;;;;;6.40;49.94;99953.92;105743;1272;25566;-62
2022/04/19 00:09:36;;;;;;;24.00;7.10;;;;;;;6.40;49.83;99954.76;105707;1272;22543;-62
2022/04/19 00:12:09;;;;;;;16.60;5.80;;;;;;;6.42;49.98;99954.11;105654;1272;22574;-62
2022/04/19 00:14:40;;;;;;;17.50;5.30;;;;;;;6.45;49.94;99955.20;105705;1271;22537;-62
2022/04/19 00:17:12;;;;;;;16.60;4.80;;;;;;;6.48;49.85;99947.79;105688;1271;23940;-61
2022/04/19 00:19:43;;;;;;;17.70;5.50;;;;;;;6.50;49.99;99946.66;105657;1271;25554;-61
2022/04/19 00:22:17;;;;;;;19.50;5.40;;;;;;;6.52;50.15;99945.95;105747;1271;25377;-62
2022/04/19 00:24:49;;;;;;;18.10;4.70;;;;;;;6.53;50.19;99944.17;105921;1271;24424;-62
2022/04/19 00:27:20;;;;;;;17.90;5.80;;;;;;;6.54;50.14;99942.61;105773;1271;25349;-61
2022/04/19 00:29:53;;;;;;;18.60;5.40;;;;;;;6.55;50.28;99936.40;105643;1271;23123;-62
2022/04/19 00:32:25;;;;;;;18.10;5.00;;;;;;;6.54;50.27;99931.59;105634;1272;22544;-62
2022/04/19 00:34:56;;;;;;;18.60;5.20;;;;;;;6.55;50.17;99936.25;105686;1271;24390;-62
2022/04/19 00:37:28;;;;;;;21.10;5.50;;;;;;;6.55;50.30;99930.39;105731;1271;22529;-61
2022/04/19 00:40:00;;;;;;;16.50;4.50;;;;;;;6.54;50.26;99924.38;105719;1271;25386;-61
2022/04/19 00:42:32;;;;;;;16.10;4.70;;;;;;;6.55;50.23;99923.02;105859;1271;22533;-62
2022/04/19 00:45:06;;;;;;;17.80;5.40;;;;;;;6.54;50.22;99919.02;105779;1272;25314;-60
2022/04/19 00:47:39;;;;;;;18.20;5.20;;;;;;;6.54;50.19;99916.89;105705;1272;24270;-60
2022/04/19 00:50:11;;;;;;;21.20;5.70;;;;;;;6.53;50.24;99915.41;105701;1271;22619;-59
2022/04/19 00:52:43;;;;;;;16.70;5.40;;;;;;;6.52;50.33;99909.19;105680;1271;23038;-61
2022/04/19 00:55:15;;;;;;;23.70;6.20;;;;;;;6.53;50.20;99907.06;105764;1271;22563;-60
2022/04/19 00:57:47;;;;;;;22.60;5.60;;;;;;;6.53;50.19;99910.33;105695;1272;22593;-62
2022/04/19 01:00:21;;;;;;;16.40;4.90;;;;;;;6.53;50.26;99908.90;105617;1272;24241;-62
2022/04/19 01:02:53;;;;;;;20.20;5.20;;;;;;;6.51;50.43;99913.34;105823;1271;22554;-61
2022/04/19 01:05:25;;;;;;;16.80;4.90;;;;;;;6.48;50.59;99915.38;106016;1272;25526;-62
2022/04/19 01:07:57;;;;;;;16.80;4.80;;;;;;;6.44;50.69;99914.35;105793;1271;22560;-61
2022/04/19 01:10:30;;;;;;;23.50;6.30;;;;;;;6.39;50.77;99912.98;105660;1271;22550;-62
2022/04/19 01:13:20;;;;;;;18.10;5.20;;;;;;;6.35;50.82;99908.63;105680;1271;24238;-62
2022/04/19 01:15:51;;;;;;;22.20;4.60;;;;;;;6.31;50.90;99909.52;105637;1271;22531;-62
2022/04/19 01:18:23;;;;;;;17.50;5.00;;;;;;;6.28;51.02;99906.05;105798;1271;24968;-60
2022/04/19 01:20:55;;;;;;;20.20;5.70;;;;;;;6.25;51.08;99905.39;105793;1271;25257;-59
2022/04/19 01:23:26;;;;;;;19.00;6.10;;;;;;;6.22;51.22;99903.63;105904;1272;24331;-62
2022/04/19 01:25:58;;;;;;;18.20;5.50;;;;;;;6.19;51.33;99906.61;105781;1271;25181;-62
2022/04/19 01:28:29;;;;;;;18.10;5.70;;;;;;;6.14;51.55;99905.00;105844;1271;23313;-59
2022/04/19 01:31:01;;;;;;;19.70;6.10;;;;;;;6.10;51.51;99898.89;105681;1271;22535;-62
2022/04/19 01:33:33;;;;;;;17.90;5.30;;;;;;;6.07;51.54;99897.88;105737;1272;22595;-62
2022/04/19 01:36:05;;;;;;;19.70;5.40;;;;;;;6.06;51.56;99896.67;105864;1272;24370;-62
2022/04/19 01:38:36;;;;;;;19.90;5.60;;;;;;;6.04;51.66;99893.19;105778;1271;24271;-62
2022/04/19 01:41:08;;;;;;;19.40;6.10;;;;;;;6.01;51.82;99888.06;106051;1272;22560;-61
2022/04/19 01:43:41;;;;;;;18.20;5.80;;;;;;;5.97;51.89;99889.35;105729;1272;22528;-62
2022/04/19 01:46:14;;;;;;;19.40;5.90;;;;;;;5.94;52.08;99881.25;105715;1271;24309;-61
2022/04/19 01:48:46;;;;;;;19.70;4.70;;;;;;;5.91;52.21;99883.16;105950;1271;22551;-60
2022/04/19 01:51:21;;;;;;;17.40;5.00;;;;;;;5.87;52.38;99882.53;105768;1272;25512;-61
2022/04/19 01:53:52;;;;;;;20.40;5.60;;;;;;;5.83;52.57;99887.85;105659;1271;22537;-61
2022/04/19 01:56:24;;;;;;;15.60;4.30;;;;;;;5.77;52.67;99889.95;105880;1271;24298;-61
2022/04/19 01:58:55;;;;;;;15.80;4.40;;;;;;;5.72;52.90;99889.80;105909;1271;22560;-62
2022/04/19 02:01:27;;;;;;;14.30;4.20;;;;;;;5.65;53.17;99887.85;105761;1271;25253;-61
2022/04/19 02:03:58;;;;;;;16.40;3.90;;;;;;;5.58;53.01;99889.27;105968;1272;22534;-61
2022/04/19 02:06:30;;;;;;;14.10;4.10;;;;;;;5.54;53.20;99889.64;105970;1272;23953;-62
2022/04/19 02:09:03;;;;;;;18.70;4.00;;;;;;;5.51;53.24;99890.24;105773;1271;22540;-61
2022/04/19 02:11:34;;;;;;;13.30;3.50;;;;;;;5.49;53.25;99889.52;105812;1272;22569;-62
2022/04/19 02:14:06;;;;;;;14.20;3.70;;;;;;;5.47;53.32;99880.34;105811;1271;24246;-60
2022/04/19 02:16:38;;;;;;;15.70;3.70;;;;;;;5.45;53.40;99878.27;105627;1271;24278;-60
2022/04/19 02:19:09;;;;;;;16.70;3.70;;;;;;;5.44;53.33;99875.00;105872;1271;22528;-62
2022/04/19 02:21:41;;;;;;;13.30;2.90;;;;;;;5.42;53.42;99873.88;106028;1271;22532;-61
2022/04/19 02:24:14;;;;;;;14.40;2.40;;;;;;;5.40;53.42;99872.70;105861;1272;26012;-59
2022/04/19 02:26:45;;;;;;;15.20;3.20;;;;;;;5.38;53.37;99870.42;105834;1271;22531;-62
2022/04/19 02:29:18;;;;;;;13.10;2.90;;;;;;;5.37;53.29;99875.83;105783;1271;25331;-60
2022/04/19 02:31:50;;;;;;;12.70;2.80;;;;;;;5.38;53.50;99877.77;105727;1272;24236;-59
2022/04/19 02:34:21;;;;;;;15.70;3.20;;;;;;;5.36;53.50;99872.37;105757;1269;22531;-61
2022/04/19 02:36:53;;;;;;;13.50;2.90;;;;;;;5.36;53.47;99873.09;105783;1272;25336;-61
2022/04/19 02:39:24;;;;;;;15.00;2.70;;;;;;;5.37;53.50;99870.68;105772;1271;22524;-60
2022/04/19 02:41:56;;;;;;;14.10;3.30;;;;;;;5.36;53.70;99870.35;105651;1272;22694;-60
2022/04/19 02:44:27;;;;;;;14.20;3.20;;;;;;;5.34;53.96;99869.69;105658;1272;25338;-61
2022/04/19 02:46:59;;;;;;;12.90;2.80;;;;;;;5.31;53.92;99869.96;105663;1271;25348;-60
2022/04/19 02:49:31;;;;;;;15.00;2.70;;;;;;;5.28;53.86;99865.70;105718;1271;25354;-63
2022/04/19 02:52:02;;;;;;;16.80;4.00;;;;;;;5.28;54.03;99870.78;105836;1271;22696;-60
2022/04/19 02:54:34;;;;;;;12.10;2.70;;;;;;;5.27;54.21;99878.41;105754;1273;23682;-59
2022/04/19 02:57:06;;;;;;;15.20;3.00;;;;;;;5.24;54.21;99875.28;105701;1271;25211;-61
2022/04/19 02:59:37;;;;;;;11.50;2.70;;;;;;;5.22;54.38;99870.20;105705;1271;24061;-61
2022/04/19 03:02:09;;;;;;;11.60;2.90;;;;;;;5.19;54.35;99871.19;105722;1271;25604;-60
2022/04/19 03:04:40;;;;;;;14.00;2.90;;;;;;;5.16;54.37;99873.92;105729;1272;22543;-61
2022/04/19 03:07:14;;;;;;;14.30;2.80;;;;;;;5.13;54.47;99876.55;105692;1272;22521;-61
2022/04/19 03:09:45;;;;;;;11.60;2.60;;;;;;;5.10;54.50;99869.09;105777;1271;25414;-61
2022/04/19 03:12:17;;;;;;;11.70;2.50;;;;;;;5.07;54.58;99862.02;105714;1271;25366;-60
2022/04/19 03:14:48;;;;;;;10.10;2.50;;;;;;;5.04;54.48;99856.09;105704;1272;25310;-60
2022/04/19 03:17:20;;;;;;;14.70;2.30;;;;;;;5.01;54.78;99857.55;105713;1271;22700;-61
2022/04/19 03:19:52;;;;;;;10.80;2.50;;;;;;;4.99;54.77;99851.95;105668;1271;22537;-61
2022/04/19 03:22:23;;;;;;;10.70;2.40;;;;;;;4.97;54.60;99852.97;105710;1272;24254;-59
2022/04/19 03:27:43;;;;;;;10.60;2.30;;;;;;;4.94;54.84;99854.58;105589;1271;22690;-61
2022/04/19 03:30:15;;;;;;;10.80;2.30;;;;;;;4.92;54.71;99848.16;105641;1271;25372;-61
2022/04/19 03:32:47;;;;;;;12.60;2.90;;;;;;;4.93;54.69;99851.77;105733;1272;25260;-61
2022/04/19 03:35:19;;;;;;;9.50;2.20;;;;;;;4.93;54.79;99855.45;105727;1272;24283;-61
2022/04/19 03:37:51;;;;;;;11.20;2.20;;;;;;;4.93;54.81;99853.71;105664;1271;26331;-60
2022/04/19 03:40:22;;;;;;;12.50;2.80;;;;;;;4.94;54.86;99853.13;105760;1272;22547;-61
2022/04/19 03:42:54;;;;;;;11.90;2.60;;;;;;;4.96;54.92;99851.96;105647;1272;24615;-60
2022/04/19 03:45:26;;;;;;;13.50;2.40;;;;;;;4.97;54.99;99845.15;105703;1272;25222;-59
2022/04/19 03:47:57;;;;;;;12.90;2.30;;;;;;;4.95;55.06;99844.00;105572;1272;22548;-61
2022/04/19 03:50:30;;;;;;;11.10;2.70;;;;;;;4.93;55.07;99841.54;105682;1272;22699;-60
2022/04/19 03:53:02;;;;;;;11.40;2.60;;;;;;;4.92;55.22;99839.92;105609;1271;22544;-60
2022/04/19 03:55:33;;;;;;;13.20;1.80;;;;;;;4.89;55.27;99838.25;107126;1270;22551;-59
2022/04/19 03:58:04;;;;;;;14.20;2.30;;;;;;;4.86;55.36;99837.64;105573;1271;25530;-60
2022/04/19 04:00:36;;;;;;;12.90;3.00;;;;;;;4.82;55.30;99838.77;105490;1271;22536;-60
2022/04/19 04:03:08;;;;;;;10.50;2.30;;;;;;;4.82;55.30;99842.50;105541;1272;25254;-59
2022/04/19 04:05:40;;;;;;;11.30;2.30;;;;;;;4.81;55.25;99845.32;105477;1271;22544;-59
2022/04/19 04:08:11;;;;;;;13.90;2.10;;;;;;;4.79;55.34;99845.39;105480;1272;22548;-58
2022/04/19 04:10:43;;;;;;;9.90;2.20;;;;;;;4.78;55.41;99846.91;105491;1272;23003;-58
2022/04/19 04:13:14;;;;;;;11.30;2.30;;;;;;;4.75;55.49;99845.20;106169;1262;22644;-55
2022/04/19 04:15:46;;;;;;;9.40;2.10;;;;;;;4.73;55.56;99845.89;106447;1270;22564;-52
2022/04/19 04:18:17;;;;;;;13.60;3.20;;;;;;;4.71;55.50;99846.13;106047;1270;25421;-55
2022/04/19 04:20:49;;;;;;;11.90;2.70;;;;;;;4.70;55.58;99847.04;105820;1271;22566;-55
2022/04/19 04:23:23;;;;;;;10.70;2.00;;;;;;;4.69;55.75;99846.21;108901;1271;22546;-53
2022/04/19 04:25:54;;;;;;;12.70;2.50;;;;;;;4.69;55.92;99847.02;107261;1271;22532;-52
2022/04/19 04:28:25;;;;;;;14.40;2.40;;;;;;;4.68;55.83;99855.02;106019;1271;22755;-52
2022/04/19 04:30:57;;;;;;;12.80;2.70;;;;;;;4.69;55.96;99861.54;106327;1271;23009;-55
2022/04/19 04:33:28;;;;;;;9.00;2.00;;;;;;;4.71;55.99;99862.71;106148;1271;22559;-53
2022/04/19 04:36:00;;;;;;;12.70;2.80;;;;;;;4.74;55.76;99861.20;105726;1271;24741;-56
2022/04/19 04:38:32;;;;;;;12.80;2.90;;;;;;;4.75;55.81;99864.32;106066;1272;22596;-53
2022/04/19 04:41:03;;;;;;;11.40;2.20;;;;;;;4.77;55.85;99864.88;105814;1272;25571;-55
2022/04/19 04:43:35;;;;;;;16.00;2.30;;;;;;;4.78;56.11;99870.23;105918;1271;23922;-55
2022/04/19 04:51:44;;;;;;;16.80;2.90;;;;;;;4.74;55.85;99850.70;105909;1271;26704;-53
2022/04/19 04:54:16;;;;;;;11.20;2.50;;;;;;;4.71;55.87;99851.66;105935;1272;22545;-55
2022/04/19 04:56:47;;;;;;;10.60;2.20;;;;;;;4.70;56.05;99854.56;105874;1271;26489;-52
2022/04/19 04:59:20;;;;;;;22.20;3.00;;;;;;;4.68;56.31;99853.77;105935;1271;22544;-54
2022/04/19 05:01:52;;;;;;;12.20;1.90;;;;;;;4.67;56.13;99854.67;105908;1271;22538;-53
2022/04/19 05:04:24;;;;;;;9.90;2.20;;;;;;;4.67;56.18;99857.66;105801;1272;22541;-55
2022/04/19 05:06:56;;;;;;;9.90;2.20;;;;;;;4.66;56.20;99856.45;106025;1271;22556;-55
2022/04/19 05:09:28;;;;;;;9.10;2.10;;;;;;;4.65;56.21;99854.80;105962;1271;26526;-54
2022/04/19 05:11:59;;;;;;;12.00;2.40;;;;;;;4.64;55.99;99849.70;106139;1271;22687;-54
2022/04/19 05:14:31;;;;;;;10.60;2.10;;;;;;;4.64;56.18;99850.34;105734;1271;22550;-55
2022/04/19 05:17:02;;;;;;;12.70;2.50;;;;;;;4.67;56.10;99848.42;109660;1271;22431;-54
2022/04/19 05:19:35;;;;;;;10.70;2.20;;;;;;;4.70;56.19;99848.31;109573;1271;22557;-53
2022/04/19 05:22:07;;;;;;;11.80;2.30;;;;;;;4.75;56.20;99853.66;105966;1271;22636;-56
2022/04/19 05:24:39;;;;;;;11.20;1.80;;;;;;;4.81;56.39;99859.23;105948;1271;22557;-54
2022/04/19 05:27:10;;;;;;;13.40;2.10;;;;;;;4.85;56.05;99862.40;105960;1270;24282;-56
2022/04/19 05:29:42;;;;;;;9.10;1.70;;;;;;;4.89;55.99;99863.44;106178;1272;22682;-52
2022/04/19 05:32:13;;;;;;;8.70;1.80;;;;;;;4.92;55.92;99866.23;106054;1272;23015;-55
2022/04/19 05:34:45;;;;;;;12.80;2.50;;;;;;;4.95;56.24;99875.30;106029;1271;23935;-53
2022/04/19 05:37:16;;;;;;;11.50;2.10;;;;;;;5.00;56.23;99876.16;105961;1272;22654;-55
2022/04/19 05:39:48;;;;;;;10.70;1.80;;;;;;;5.03;56.20;99876.77;105974;1272;22656;-55
2022/04/19 05:42:20;;;;;;;12.40;2.60;;;;;;;5.02;56.23;99879.95;106018;1272;24223;-51
2022/04/19 05:44:52;;;;;;;11.30;2.10;;;;;;;5.02;56.45;99893.72;105961;1272;22557;-53
2022/04/19 05:47:23;;;;;;;10.80;2.00;;;;;;;4.96;57.54;99902.25;106068;1272;22559;-54
2022/04/19 05:49:54;;;;;;;9.40;2.10;;;;;;;4.76;59.48;99900.80;105854;1272;22553;-64
2022/04/19 05:52:27;;;;;;;9.50;1.50;;;;;;;4.54;59.94;99886.02;105727;1272;24264;-58
2022/04/19 05:54:58;;;;;;;10.30;1.90;;;;;;;4.32;60.21;99868.75;105746;1272;25398;-58
2022/04/19 05:57:30;;;;;;;10.60;2.00;;;;;;;4.18;60.72;99859.11;105808;1271;25171;-58
2022/04/19 06:00:01;;;;;;;13.60;3.20;;;;;;;4.08;61.13;99851.77;105809;1271;25257;-56
2022/04/19 06:05:23;;;;;;;8.00;2.00;;;;;;;3.95;62.64;99860.07;105523;1272;22529;-58
2022/04/19 06:07:55;;;;;;;9.20;2.00;;;;;;;3.89;63.33;99863.37;105579;1272;24233;-56
2022/04/19 06:10:27;;;;;;;7.70;1.90;;;;;;;3.84;63.62;99863.04;105793;1271;23240;-57
2022/04/19 06:12:58;;;;;;;9.40;2.10;;;;;;;3.82;64.12;99860.89;105908;1271;22540;-56
2022/04/19 06:15:31;;;;;;;9.90;2.50;;;;;;;3.83;64.20;99867.10;106151;1272;22528;-56
2022/04/19 06:18:03;;;;;;;14.40;3.80;;;;;;;3.85;64.62;99866.79;105792;1271;22531;-56
2022/04/19 06:20:36;;;;;;;13.60;3.60;;;;;;;3.87;64.70;99866.17;105741;1271;22877;-55
2022/04/19 06:23:09;;;;;;;13.90;3.10;;;;;;;3.92;65.02;99867.12;105786;1271;23028;-56
2022/04/19 06:25:41;;;;;;;11.90;2.40;;;;;;;3.98;64.97;99865.91;105785;1271;25363;-54
2022/04/19 06:28:13;;;;;;;12.20;2.90;;;;;;;4.05;65.57;99864.73;105707;1271;25442;-55
2022/04/19 06:30:44;;;;;;;8.50;2.30;;;;;;;4.10;65.62;99861.48;105836;1271;25109;-56
2022/04/19 06:33:17;;;;;;;10.20;2.40;;;;;;;4.17;65.80;99859.48;105842;1271;22701;-57
2022/04/19 06:35:48;;;;;;;11.40;2.40;;;;;;;4.26;66.19;99855.52;105692;1271;22579;-51
2022/04/19 06:38:20;;;;;;;9.20;2.90;;;;;;;4.37;66.53;99848.36;105977;1271;22676;-54
2022/04/19 06:40:51;;;;;;;7.70;2.30;;;;;;;4.50;66.75;99845.15;105846;1271;23366;-54
2022/04/19 06:43:23;;;;;;;6.50;1.80;;;;;;;4.59;67.67;99852.72;105850;1271;25196;-54
2022/04/19 06:45:55;;;;;;;13.40;2.70;;;;;;;4.69;67.40;99855.67;105892;1271;22553;-55
2022/04/19 06:48:29;;;;;;;10.10;2.60;;;;;;;4.79;67.19;99862.78;105845;1271;22642;-52
2022/04/19 06:51:01;;;;;;;12.30;3.10;;;;;;;4.87;67.25;99865.15;105764;1271;22713;-54
2022/04/19 06:53:33;;;;;;;8.30;2.40;;;;;;;4.96;67.59;99859.69;105743;1271;24215;-54
2022/04/19 06:56:06;;;;;;;10.20;3.00;;;;;;;5.08;67.83;99861.73;105688;1271;23869;-52
2022/04/19 06:58:39;;;;;;;12.90;2.80;;;;;;;5.14;67.55;99861.41;105762;1272;25253;-54
2022/04/19 07:01:11;;;;;;;11.40;3.10;;;;;;;5.20;67.68;99858.29;105891;1271;22518;-53
2022/04/19 07:03:43;;;;;;;12.90;2.70;;;;;;;5.23;67.66;99860.55;105666;1272;22564;-55
2022/04/19 07:06:15;;;;;;;9.50;2.70;;;;;;;5.27;67.80;99858.73;105802;1271;22691;-56
2022/04/19 07:08:48;;;;;;;8.80;2.30;;;;;;;5.33;67.80;99858.89;105726;1271;22551;-56
2022/04/19 07:11:20;;;;;;;10.20;2.60;;;;;;;5.43;67.60;99859.31;106027;1271;22531;-56
2022/04/19 07:13:51;;;;;;;9.20;2.20;;;;;;;5.54;68.43;99857.86;105770;1272;23381;-56
2022/04/19 07:16:23;;;;;;;10.60;2.60;;;;;;;5.61;67.90;99853.31;105874;1271;22728;-56
2022/04/19 07:18:54;;;;;;;8.00;2.10;;;;;;;5.65;67.92;99856.38;105850;1271;22534;-52
2022/04/19 07:27:03;;;;;;;9.80;2.60;;;;;;;5.80;67.27;99856.06;105575;1271;22550;-54
2022/04/19 07:29:35;;;;;;;10.90;2.70;;;;;;;5.83;67.34;99848.65;105661;1272;22560;-54
2022/04/19 07:32:08;;;;;;;10.90;3.10;;;;;;;5.90;67.45;99853.86;105644;1271;24921;-57
2022/04/19 07:34:40;;;;;;;10.00;2.30;;;;;;;5.98;67.38;99853.91;105761;1272;22604;-56
2022/04/19 07:37:12;;;;;;;9.10;2.60;;;;;;;6.03;66.85;99855.22;105867;1271;22532;-53
2022/04/19 07:39:46;;;;;;;10.10;2.70;;;;;;;6.05;66.83;99857.66;106047;1271;25254;-55
2022/04/19 07:42:18;;;;;;;9.90;2.40;;;;;;;6.07;67.06;99860.29;105700;1271;22548;-56
2022/04/19 07:44:50;;;;;;;8.50;2.70;;;;;;;6.07;66.85;99863.38;105636;1271;26723;-55
2022/04/19 07:47:21;;;;;;;9.70;2.40;;;;;;;6.09;66.96;99866.60;105900;1271;22529;-55
2022/04/19 07:49:56;;;;;;;8.20;2.10;;;;;;;6.13;66.79;99867.02;105633;1271;26498;-55
2022/04/19 07:52:28;;;;;;;13.10;3.40;;;;;;;6.14;66.71;99872.75;105708;1271;26512;-55
2022/04/19 07:55:00;;;;;;;9.40;2.70;;;;;;;6.12;66.43;99872.59;105865;1271;22547;-55
2022/04/19 07:57:32;;;;;;;11.40;3.10;;;;;;;6.10;66.32;99873.09;105935;1271;22535;-54
2022/04/19 08:00:04;;;;;;;13.40;3.50;;;;;;;6.09;66.40;99876.52;105906;1271;22550;-55
2022/04/19 08:02:36;;;;;;;8.70;2.40;;;;;;;6.08;66.28;99875.14;106101;1272;22548;-54
2022/04/19 08:05:10;;;;;;;13.20;4.00;;;;;;;6.02;66.00;99877.42;105814;1271;24212;-52
2022/04/19 08:07:42;;;;;;;11.30;3.50;;;;;;;5.97;66.32;99877.00;105895;1271;24264;-52
2022/04/19 08:10:15;;;;;;;14.80;4.80;;;;;;;5.93;66.35;99878.66;105831;1272;24317;-53
2022/04/19 08:12:47;;;;;;;11.80;4.00;;;;;;;5.93;66.49;99880.65;105872;1271;24261;-54
2022/04/19 08:15:21;;;;;;;14.30;5.10;;;;;;;5.89;66.82;99882.09;105791;1271;22556;-53
2022/04/19 08:17:53;;;;;;;17.00;5.30;;;;;;;5.88;66.93;99888.23;105978;1271;24449;-54
2022/04/19 08:20:25;;;;;;;15.80;5.20;;;;;;;5.90;66.96;99884.44;105988;1271;22535;-53
2022/04/19 08:22:57;;;;;;;14.30;5.00;;;;;;;5.91;66.76;99886.13;105872;1272;22541;-55
2022/04/19 08:25:29;;;;;;;15.00;4.80;;;;;;;5.92;66.61;99884.96;105832;1272;25575;-54
2022/04/19 08:28:00;;;;;;;14.10;4.80;;;;;;;5.96;66.79;99889.01;105907;1271;23479;-56
2022/04/19 08:30:32;;;;;;;11.50;4.10;;;;;;;5.99;66.88;99892.59;105997;1272;24297;-53
2022/04/19 08:33:04;;;;;;;13.40;4.80;;;;;;;5.98;66.88;99888.70;105894;1271;25472;-53
2022/04/19 08:35:36;;;;;;;16.50;5.30;;;;;;;6.00;67.22;99886.55;105592;1271;22553;-52
2022/04/19 08:38:08;;;;;;;15.10;5.40;;;;;;;6.06;67.14;99889.71;105803;1271;25493;-54
2022/04/19 08:40:41;;;;;;;14.70;4.30;;;;;;;6.08;67.31;99894.86;105809;1272;25847;-55
2022/04/19 08:43:13;;;;;;;14.20;5.40;;;;;;;6.05;66.95;99899.95;105972;1271;22643;-55
2022/04/19 08:45:46;;;;;;;14.80;5.80;;;;;;;6.05;66.98;99897.51;105995;1271;25335;-57
2022/04/19 08:48:19;;;;;;;14.30;5.90;;;;;;;6.09;67.09;99898.33;105798;1271;22688;-52
2022/04/19 08:50:55;;;;;;;14.10;4.90;;;;;;;6.13;66.98;99906.70;105770;1272;24084;-52
2022/04/19 08:59:15;;;;;;;12.80;4.80;;;;;;;6.05;66.44;99912.63;105598;1276;25249;-54
2022/04/19 09:01:48;;;;;;;13.40;5.00;;;;;;;6.07;66.61;99918.32;105575;1276;25209;-54
2022/04/19 09:04:25;;;;;;;13.00;4.40;;;;;;;6.07;66.89;99921.66;105468;1276;22576;-54
2022/04/19 09:06:59;;;;;;;11.50;4.80;;;;;;;6.02;67.10;99928.59;105540;1276;22531;-52
2022/04/19 09:09:34;;;;;;;12.70;4.50;;;;;;;6.00;67.27;99935.69;105612;1276;22539;-54
2022/04/19 09:12:14;;;;;;;15.50;5.80;;;;;;;5.99;67.04;99940.49;105501;1276;22710;-55
2022/04/19 09:14:59;;;;;;;15.70;5.70;;;;;;;5.97;67.20;99940.98;105462;1276;25239;-54
2022/04/19 09:17:36;;;;;;;29.00;11.50;;;;;;;5.99;67.13;99943.73;105505;1276;25564;-57
2022/04/19 09:20:18;;;;;;;19.30;7.10;;;;;;;6.02;67.22;99944.11;105705;1276;25642;-53
2022/04/19 09:23:01;;;;;;;38.30;13.60;;;;;;;6.02;67.22;99949.24;105825;1276;24053;-60
2022/04/19 09:25:33;;;;;;;20.80;8.80;;;;;;;6.01;67.26;99950.54;105638;1276;22589;-56
2022/04/19 09:28:16;;;;;;;19.90;6.90;;;;;;;6.03;67.40;99954.67;105676;1276;25521;-53
2022/04/19 09:30:50;;;;;;;17.00;6.90;;;;;;;6.02;67.47;99950.56;105689;1276;22746;-52
2022/04/19 09:33:24;;;;;;;11.90;5.20;;;;;;;6.06;67.21;99950.83;105763;1272;25465;-52
2022/04/19 09:35:58;;;;;;;14.50;5.80;;;;;;;6.09;67.07;99950.39;105867;1272;25342;-54
2022/04/19 09:38:40;;;;;;;13.60;4.60;;;;;;;6.09;67.01;99954.42;105729;1272;22544;-55
2022/04/19 09:41:16;;;;;;;12.40;5.10;;;;;;;6.08;67.17;99959.77;105925;1272;24273;-56
2022/04/19 09:44:07;;;;;;;19.70;9.10;;;;;;;6.06;67.29;99960.95;105673;1271;25308;-54
2022/04/19 09:46:39;;;;;;;21.20;8.50;;;;;;;6.03;67.29;99959.33;105811;1271;22611;-54
2022/04/19 09:49:12;;;;;;;20.80;10.00;;;;;;;6.02;67.45;99964.98;105875;1271;25405;-54
2022/04/19 09:51:44;;;;;;;25.40;12.40;;;;;;;6.04;67.55;99970.43;105839;1272;23274;-54
2022/04/19 09:54:25;;;;;;;21.00;9.10;;;;;;;6.08;67.61;99967.98;105743;1273;22554;-55
2022/04/19 09:56:56;;;;;;;14.70;5.20;;;;;;;6.16;67.36;99966.12;105721;1272;24441;-56
2022/04/19 09:59:31;;;;;;;10.80;3.60;;;;;;;6.22;66.98;99962.85;105747;1271;24417;-54
2022/04/19 10:10:41;;;;;;;14.90;4.50;;;;;;;6.56;66.35;99962.60;105918;1271;25438;-55
2022/04/19 10:13:14;;;;;;;47.60;21.20;;;;;;;6.61;66.63;99968.35;106231;1271;22655;-55
2022/04/19 10:15:48;;;;;;;32.00;12.10;;;;;;;6.70;66.30;99968.11;105894;1272;22793;-56
2022/04/19 10:18:20;;;;;;;21.30;7.70;;;;;;;6.76;66.03;99968.84;106000;1271;24166;-52
2022/04/19 10:21:04;;;;;;;13.80;4.90;;;;;;;6.86;66.19;99965.67;105900;1273;24287;-54
2022/04/19 10:23:41;;;;;;;14.40;4.40;;;;;;;7.02;66.09;99970.34;105742;1271;22568;-53
2022/04/19 10:26:19;;;;;;;19.40;6.60;;;;;;;7.07;65.27;99975.10;105772;1271;25316;-55
2022/04/19 10:28:52;;;;;;;16.50;4.80;;;;;;;7.05;65.09;99980.41;105738;1273;22526;-56
2022/04/19 10:31:35;;;;;;;17.10;6.00;;;;;;;7.01;65.06;99977.45;106024;1271;25370;-54
2022/04/19 10:34:07;;;;;;;8.90;3.00;;;;;;;6.98;64.79;99983.11;106007;1271;22553;-56
2022/04/19 10:36:40;;;;;;;10.70;3.70;;;;;;;6.94;64.77;99986.03;105795;1272;22542;-55
2022/04/19 10:39:32;;;;;;;11.30;3.30;;;;;;;6.92;65.03;99982.98;105946;1271;22783;-55
2022/04/19 10:42:05;;;;;;;11.30;3.40;;;;;;;6.95;64.59;99977.63;105829;1271;24239;-54
2022/04/19 10:44:50;;;;;;;14.90;5.50;;;;;;;6.99;64.61;99981.98;105585;1272;395283;-56
2022/04/19 10:47:24;;;;;;;10.60;3.40;;;;;;;7.04;64.45;99981.89;105758;1272;24480;-54
2022/04/19 10:49:59;;;;;;;9.70;2.90;;;;;;;7.10;64.50;99980.29;105749;1271;25584;-54
2022/04/19 10:52:53;;;;;;;11.50;4.30;;;;;;;7.17;64.49;99984.61;105879;1271;25312;-56
2022/04/19 10:55:34;;;;;;;10.40;4.00;;;;;;;7.22;64.07;99989.15;105889;1271;25232;-52
2022/04/19 10:58:17;;;;;;;8.20;3.00;;;;;;;7.20;63.74;99993.96;106190;1272;22670;-54
2022/04/19 11:00:53;;;;;;;8.70;3.40;;;;;;;7.18;63.80;99997.08;105854;1272;22576;-57
2022/04/19 11:03:46;;;;;;;10.10;3.50;;;;;;;7.23;63.98;99996.71;105866;1272;24349;-54
2022/04/19 11:06:40;;;;;;;10.30;3.40;;;;;;;7.32;64.12;99999.09;105713;1272;22549;-55
2022/04/19 11:09:19;;;;;;;11.30;4.00;;;;;;;7.37;63.75;100000.94;105737;1272;24595;-57
2022/04/19 11:11:53;;;;;;;21.00;9.60;;;;;;;7.39;63.53;100001.60;105898;1271;22554;-52
2022/04/19 11:14:40;;;;;;;16.10;7.60;;;;;;;7.40;63.33;99996.13;105873;1271;25583;-50
2022/04/19 11:17:40;;;;;;;9.50;3.70;;;;;;;7.44;63.28;100000.08;105769;1271;22548;-54
2022/04/19 11:20:16;;;;;;;8.60;3.00;;;;;;;7.49;63.24;99997.42;105825;1272;22796;-56
2022/04/19 11:22:52;;;;;;;9.40;3.40;;;;;;;7.57;62.99;100000.62;106133;1271;25523;-54
2022/04/19 11:25:43;;;;;;;12.80;4.60;;;;;;;7.65;62.82;100005.58;105857;1272;22724;-51
2022/04/19 11:28:21;;;;;;;9.10;3.30;;;;;;;7.68;62.53;99997.73;105933;1272;26577;-56
2022/04/19 11:31:14;;;;;;;10.10;3.60;;;;;;;7.69;62.29;100006.26;105937;1272;24162;-54
2022/04/19 11:33:46;;;;;;;9.30;2.80;;;;;;;7.70;62.46;100002.42;106169;1271;22699;-59
2022/04/19 11:36:19;;;;;;;12.00;4.20;;;;;;;7.71;62.37;99998.31;105964;1271;25533;-55
2022/04/19 11:38:52;;;;;;;9.80;3.90;;;;;;;7.76;62.50;99998.40;105932;1271;22722;-54
2022/04/19 11:47:08;;;;;;;11.90;3.70;;;;;;;7.87;61.97;100010.11;105594;1270;25444;-55
2022/04/19 11:49:43;;;;;;;8.30;3.20;;;;;;;7.89;61.93;100009.48;105702;1271;22748;-56
2022/04/19 11:52:16;;;;;;;10.70;4.00;;;;;;;7.95;62.11;100008.71;105632;1271;25292;-56
2022/04/19 11:54:55;;;;;;;11.20;4.30;;;;;;;8.07;61.97;100006.57;105745;1272;22570;-57
2022/04/19 11:57:28;;;;;;;13.70;5.90;;;;;;;8.17;61.43;100000.80;107156;1271;26052;-57
2022/04/19 12:00:00;;;;;;;10.60;3.40;;;;;;;8.24;61.29;100010.25;105740;1271;25248;-55
2022/04/19 12:02:33;;;;;;;10.80;3.80;;;;;;;8.28;61.19;100012.16;105946;1271;23150;-58
2022/04/19 12:05:06;;;;;;;10.30;3.60;;;;;;;8.31;61.08;100011.95;105679;1272;22562;-56
2022/04/19 12:07:47;;;;;;;9.40;3.10;;;;;;;8.32;60.89;100012.89;105877;1272;22541;-56
2022/04/19 12:10:23;;;;;;;12.10;4.00;;;;;;;8.34;60.73;100015.01;105694;1271;25283;-56
2022/04/19 12:12:55;;;;;;;10.50;3.40;;;;;;;8.34;60.10;100014.77;105795;1271;25385;-55
2022/04/19 12:15:43;;;;;;;13.30;4.70;;;;;;;8.35;60.29;100012.30;105962;1271;22606;-59
2022/04/19 12:18:32;;;;;;;10.80;4.00;;;;;;;8.39;59.75;100014.52;105582;1272;23300;-55
2022/04/19 12:21:05;;;;;;;11.20;4.20;;;;;;;8.39;59.42;100013.61;105736;1272;22581;-57
2022/04/19 12:23:37;;;;;;;11.20;4.40;;;;;;;8.39;59.65;100013.30;105735;1272;22529;-57
2022/04/19 12:26:11;;;;;;;9.90;3.80;;;;;;;8.41;59.93;100015.52;105838;1271;22576;-56
2022/04/19 12:28:47;;;;;;;12.10;3.90;;;;;;;8.44;59.69;100013.06;105869;1272;25449;-56
2022/04/19 12:31:36;;;;;;;10.70;3.60;;;;;;;8.49;59.83;100009.35;105845;1272;25266;-55
2022/04/19 12:34:10;;;;;;;12.20;4.00;;;;;;;8.54;59.29;100017.81;105751;1271;25391;-57